createdAt,value
2017-09-23T00:01:34.227Z,26.10
2017-09-23T00:04:06.411Z,26.30
2017-09-23T00:06:37.299Z,26.30
2017-09-23T00:09:08.228Z,26.30
2017-09-23T00:11:39.166Z,26.30
2017-09-23T00:14:10.106Z,26.40
2017-09-23T00:16:41.513Z,26.40
2017-09-23T00:19:12.452Z,26.40
2017-09-23T00:21:43.420Z,26.50
2017-09-23T00:24:14.367Z,26.50
2017-09-23T00:26:45.265Z,26.50
2017-09-23T00:29:16.670Z,26.60
2017-09-23T00:31:47.620Z,26.60
2017-09-23T00:34:19.047Z,26.60
2017-09-23T00:36:50.761Z,26.70
2017-09-23T00:39:21.696Z,26.70
2017-09-23T00:41:52.859Z,26.80
2017-09-23T00:44:23.790Z,26.80
2017-09-23T00:46:55.131Z,26.90
2017-09-23T00:49:26.041Z,26.90
2017-09-23T00:51:57.806Z,26.90
2017-09-23T00:54:29.497Z,26.90
2017-09-23T00:57:00.404Z,26.90
2017-09-23T00:59:32.358Z,26.90
2017-09-23T01:02:04.039Z,27.00
2017-09-23T01:04:34.979Z,26.90
2017-09-23T01:07:05.895Z,27.00
2017-09-23T01:09:37.576Z,27.10
2017-09-23T01:12:08.521Z,27.10
2017-09-23T01:14:39.438Z,27.10
2017-09-23T01:17:10.804Z,27.20
2017-09-23T01:19:41.725Z,27.30
2017-09-23T01:22:12.735Z,27.40
2017-09-23T01:24:43.685Z,27.60
2017-09-23T01:27:15.387Z,27.80
2017-09-23T01:29:46.817Z,27.80
2017-09-23T01:32:18.023Z,27.90
2017-09-23T01:34:48.956Z,28.00
2017-09-23T01:37:19.882Z,28.10
2017-09-23T01:39:50.822Z,28.20
2017-09-23T01:42:22.074Z,28.20
2017-09-23T01:44:53.019Z,28.30
2017-09-23T01:47:24.219Z,28.40
2017-09-23T01:49:55.143Z,28.50
2017-09-23T01:52:26.059Z,28.60
2017-09-23T01:54:57.060Z,28.70
2017-09-23T01:57:28.023Z,28.80
2017-09-23T01:59:59.315Z,28.90
2017-09-23T02:02:31.184Z,29.00
2017-09-23T02:05:02.109Z,29.10
2017-09-23T02:07:33.026Z,29.10
2017-09-23T02:10:04.710Z,29.10
2017-09-23T02:12:35.931Z,29.10
2017-09-23T02:15:07.607Z,29.10
2017-09-23T02:17:38.939Z,29.10
2017-09-23T02:20:09.913Z,29.10
2017-09-23T02:22:40.831Z,29.10
2017-09-23T02:25:11.762Z,29.10
2017-09-23T02:27:42.662Z,29.20
2017-09-23T02:30:14.134Z,29.20
2017-09-23T02:32:45.800Z,29.20
2017-09-23T02:35:16.698Z,29.20
2017-09-23T02:37:47.626Z,29.20
2017-09-23T02:40:18.542Z,29.30
2017-09-23T02:42:49.456Z,29.30
2017-09-23T02:45:20.381Z,29.30
2017-09-23T02:47:52.069Z,29.30
2017-09-23T02:50:23.007Z,29.30
2017-09-23T02:52:54.000Z,29.20
2017-09-23T02:55:25.691Z,29.00
2017-09-23T02:57:56.627Z,29.00
2017-09-23T03:00:27.766Z,29.00
2017-09-23T03:02:59.596Z,28.90
2017-09-23T03:05:30.503Z,28.90
2017-09-23T03:08:01.398Z,28.90
2017-09-23T03:10:32.289Z,28.90
2017-09-23T03:13:04.420Z,28.90
2017-09-23T03:15:35.352Z,28.90
2017-09-23T03:18:06.570Z,28.90
2017-09-23T03:20:38.249Z,29.10
2017-09-23T03:23:09.176Z,29.10
2017-09-23T03:25:40.083Z,29.20
2017-09-23T03:28:11.147Z,29.30
2017-09-23T03:30:43.128Z,29.80
2017-09-23T03:33:14.039Z,29.80
2017-09-23T03:35:45.741Z,30.20
2017-09-23T03:38:16.652Z,30.20
2017-09-23T03:40:47.599Z,30.30
2017-09-23T03:43:19.130Z,30.40
2017-09-23T03:45:50.794Z,30.50
2017-09-23T03:48:22.859Z,30.70
2017-09-23T03:50:54.571Z,30.80
2017-09-23T03:53:25.477Z,30.80
2017-09-23T03:55:56.407Z,30.90
2017-09-23T03:58:27.324Z,30.80
2017-09-23T04:00:59.415Z,31.00
2017-09-23T04:03:30.328Z,31.00
2017-09-23T04:06:01.999Z,31.40
2017-09-23T04:08:32.899Z,31.40
2017-09-23T04:11:03.824Z,31.60
2017-09-23T04:13:35.224Z,31.80
2017-09-23T04:16:06.971Z,32.20
2017-09-23T04:18:39.743Z,32.30
2017-09-23T04:21:11.420Z,32.20
2017-09-23T04:23:42.322Z,32.10
2017-09-23T04:26:13.308Z,32.00
2017-09-23T04:28:44.223Z,32.20
2017-09-23T04:31:17.114Z,31.80
2017-09-23T04:33:48.029Z,31.80
2017-09-23T04:36:19.750Z,31.40
2017-09-23T04:38:50.662Z,31.40
2017-09-23T04:41:21.578Z,31.20
2017-09-23T04:43:53.639Z,30.90
2017-09-23T04:46:25.331Z,30.90
2017-09-23T04:48:57.417Z,30.90
2017-09-23T04:51:28.332Z,31.10
2017-09-23T04:53:59.252Z,31.20
2017-09-23T04:56:30.237Z,31.20
2017-09-23T04:59:01.235Z,31.20
2017-09-23T05:01:33.297Z,30.90
2017-09-23T05:04:04.187Z,30.90
2017-09-23T05:06:35.110Z,30.80
2017-09-23T05:09:06.320Z,30.60
2017-09-23T05:11:37.231Z,30.50
2017-09-23T05:14:09.397Z,30.30
2017-09-23T05:16:41.067Z,30.20
2017-09-23T05:19:12.714Z,30.70
2017-09-23T05:21:44.407Z,30.00
2017-09-23T05:24:15.292Z,29.90
2017-09-23T05:26:46.967Z,30.10
2017-09-23T05:29:18.614Z,29.90
2017-09-23T05:31:50.719Z,30.10
2017-09-23T05:34:21.620Z,30.10
2017-09-23T05:36:53.283Z,30.40
2017-09-23T05:39:24.935Z,30.50
2017-09-23T05:41:56.613Z,30.50
2017-09-23T05:44:27.892Z,30.60
2017-09-23T05:46:58.841Z,30.60
2017-09-23T05:49:29.813Z,30.60
2017-09-23T05:52:02.449Z,30.70
2017-09-23T05:54:33.370Z,30.70
2017-09-23T05:57:04.326Z,31.00
2017-09-23T05:59:35.199Z,31.30
2017-09-23T06:02:08.954Z,31.20
2017-09-23T06:04:39.849Z,31.20
2017-09-23T06:07:11.510Z,31.40
2017-09-23T06:09:42.407Z,31.40
2017-09-23T06:12:13.349Z,31.70
2017-09-23T06:14:44.726Z,31.70
2017-09-23T06:17:17.159Z,31.60
2017-09-23T06:19:48.046Z,31.50
2017-09-23T06:22:19.463Z,31.50
2017-09-23T06:24:50.361Z,31.30
2017-09-23T06:27:22.395Z,31.20
2017-09-23T06:29:54.280Z,30.90
2017-09-23T06:32:25.674Z,30.90
2017-09-23T06:34:56.570Z,30.80
2017-09-23T06:37:27.520Z,30.90
2017-09-23T06:39:58.537Z,31.30
2017-09-23T06:42:29.481Z,32.00
2017-09-23T06:45:02.095Z,31.80
2017-09-23T06:47:33.024Z,32.00
2017-09-23T06:50:03.928Z,32.10
2017-09-23T06:52:34.853Z,32.10
2017-09-23T06:55:05.748Z,32.00
2017-09-23T06:57:37.165Z,32.00
2017-09-23T07:00:08.074Z,32.00
2017-09-23T07:02:41.072Z,31.70
2017-09-23T07:05:11.963Z,31.60
2017-09-23T07:07:43.533Z,31.50
2017-09-23T07:10:15.278Z,31.30
2017-09-23T07:12:46.154Z,31.20
2017-09-23T07:15:17.395Z,31.20
2017-09-23T07:17:49.902Z,31.20
2017-09-23T07:20:20.808Z,31.30
2017-09-23T07:22:52.450Z,31.50
2017-09-23T07:25:24.374Z,31.60
2017-09-23T07:27:55.467Z,31.50
2017-09-23T07:30:27.145Z,31.60
2017-09-23T07:32:58.471Z,31.60
2017-09-23T07:35:30.895Z,31.30
2017-09-23T07:38:02.244Z,31.30
2017-09-23T07:40:33.138Z,31.30
2017-09-23T07:43:04.054Z,31.30
2017-09-23T07:45:36.203Z,31.30
2017-09-23T07:48:07.326Z,31.40
2017-09-23T07:50:38.203Z,31.40
2017-09-23T07:53:10.768Z,31.30
2017-09-23T07:55:41.654Z,31.40
2017-09-23T07:58:13.033Z,31.40
2017-09-23T08:00:43.930Z,31.40
2017-09-23T08:03:14.957Z,31.30
2017-09-23T08:05:45.842Z,31.20
2017-09-23T08:08:16.747Z,31.20
2017-09-23T08:10:47.626Z,31.20
2017-09-23T08:13:18.723Z,31.20
2017-09-23T08:15:49.757Z,31.30
2017-09-23T08:18:20.695Z,31.40
2017-09-23T08:20:51.591Z,31.60
2017-09-23T08:23:22.490Z,31.70
2017-09-23T08:25:53.374Z,31.70
2017-09-23T08:28:24.655Z,31.50
2017-09-23T08:30:55.534Z,31.50
2017-09-23T08:33:27.142Z,31.40
2017-09-23T08:35:58.031Z,31.30
2017-09-23T08:38:28.942Z,31.20
2017-09-23T08:40:59.817Z,31.30
2017-09-23T08:43:30.843Z,31.30
2017-09-23T08:46:03.748Z,31.30
2017-09-23T08:48:34.658Z,31.20
2017-09-23T08:51:05.545Z,31.10
2017-09-23T08:53:37.266Z,30.90
2017-09-23T08:56:08.150Z,30.90
2017-09-23T08:58:39.255Z,30.80
2017-09-23T09:01:10.126Z,30.70
2017-09-23T09:03:41.006Z,30.60
2017-09-23T09:06:11.894Z,30.50
2017-09-23T09:08:43.522Z,30.40
2017-09-23T09:11:14.418Z,30.50
2017-09-23T09:13:45.297Z,30.40
2017-09-23T09:16:16.690Z,30.30
2017-09-23T09:18:47.595Z,30.30
2017-09-23T09:21:19.232Z,30.10
2017-09-23T09:23:50.119Z,30.10
2017-09-23T09:26:21.037Z,30.10
2017-09-23T09:28:53.120Z,30.00
2017-09-23T09:31:24.007Z,29.90
2017-09-23T09:33:54.931Z,29.90
2017-09-23T09:36:25.804Z,29.90
2017-09-23T09:38:57.498Z,29.90
2017-09-23T09:41:28.769Z,29.90
2017-09-23T09:43:59.766Z,29.90
2017-09-23T09:46:31.007Z,29.90
2017-09-23T09:49:02.895Z,29.80
2017-09-23T09:51:33.831Z,29.80
2017-09-23T09:54:04.711Z,29.80
2017-09-23T09:56:35.627Z,29.80
2017-09-23T09:59:07.039Z,29.80
2017-09-23T10:01:37.945Z,29.70
2017-09-23T10:04:09.641Z,29.60
2017-09-23T10:06:40.527Z,29.60
2017-09-23T10:09:11.419Z,29.60
2017-09-23T10:11:42.954Z,29.60
2017-09-23T10:14:13.884Z,29.50
2017-09-23T10:16:45.946Z,29.50
2017-09-23T10:19:17.608Z,29.50
2017-09-23T10:21:49.283Z,29.40
2017-09-23T10:24:20.202Z,29.40
2017-09-23T10:26:52.121Z,29.40
2017-09-23T10:29:23.474Z,29.30
2017-09-23T10:31:54.359Z,29.30
2017-09-23T10:34:25.239Z,29.30
2017-09-23T10:36:56.138Z,29.20
2017-09-23T10:39:28.434Z,29.20
2017-09-23T10:42:00.520Z,29.10
2017-09-23T10:44:32.397Z,29.10
2017-09-23T10:47:04.267Z,29.00
2017-09-23T10:49:35.914Z,28.90
2017-09-23T10:52:06.790Z,28.90
2017-09-23T10:54:37.712Z,28.90
2017-09-23T10:57:09.589Z,28.80
2017-09-23T10:59:40.725Z,28.70
2017-09-23T11:02:11.632Z,28.70
2017-09-23T11:04:43.298Z,28.60
2017-09-23T11:07:14.971Z,28.60
2017-09-23T11:09:45.874Z,28.50
2017-09-23T11:12:17.247Z,28.50
2017-09-23T11:14:48.949Z,28.40
2017-09-23T11:17:20.278Z,28.40
2017-09-23T11:19:51.195Z,28.30
2017-09-23T11:22:22.083Z,28.30
2017-09-23T11:24:52.982Z,28.30
2017-09-23T11:27:23.874Z,28.20
2017-09-23T11:29:55.048Z,28.20
2017-09-23T11:32:26.761Z,28.10
2017-09-23T11:34:57.680Z,28.10
2017-09-23T11:37:28.578Z,28.10
2017-09-23T11:40:00.272Z,28.00
2017-09-23T11:42:31.679Z,28.00
2017-09-23T11:45:03.351Z,28.00
2017-09-23T11:47:34.382Z,28.00
2017-09-23T11:50:05.303Z,27.90
2017-09-23T11:52:36.963Z,27.90
2017-09-23T11:55:08.624Z,27.90
2017-09-23T11:57:40.267Z,27.80
2017-09-23T12:00:12.403Z,27.80
2017-09-23T12:02:43.323Z,27.80
2017-09-23T12:05:14.228Z,27.70
2017-09-23T12:07:45.097Z,27.70
2017-09-23T12:10:15.987Z,27.70
2017-09-23T12:12:48.033Z,27.70
2017-09-23T12:15:18.946Z,27.60
2017-09-23T12:17:50.822Z,27.60
2017-09-23T12:20:21.703Z,27.60
2017-09-23T12:22:53.370Z,27.50
2017-09-23T12:25:24.263Z,27.50
2017-09-23T12:27:55.159Z,27.50
2017-09-23T12:30:27.496Z,27.50
2017-09-23T12:32:59.152Z,27.50
2017-09-23T12:35:30.867Z,27.40
2017-09-23T12:38:01.768Z,27.40
2017-09-23T12:40:32.907Z,27.50
2017-09-23T12:43:04.275Z,27.50
2017-09-23T12:45:35.152Z,27.50
2017-09-23T12:48:06.072Z,27.50
2017-09-23T12:50:36.960Z,27.50
2017-09-23T12:53:08.096Z,27.50
2017-09-23T12:55:40.985Z,27.40
2017-09-23T12:58:12.630Z,27.40
2017-09-23T13:00:44.744Z,27.40
2017-09-23T13:03:15.635Z,27.40
2017-09-23T13:05:47.292Z,27.30
2017-09-23T13:08:18.945Z,27.30
2017-09-23T13:10:50.579Z,27.30
2017-09-23T13:13:21.906Z,27.30
2017-09-23T13:15:54.222Z,27.20
2017-09-23T13:18:25.904Z,27.20
2017-09-23T13:20:56.847Z,27.20
2017-09-23T13:23:27.760Z,27.20
2017-09-23T13:26:00.258Z,27.20
2017-09-23T13:28:31.176Z,27.20
2017-09-23T13:31:03.143Z,27.20
2017-09-23T13:33:34.814Z,27.10
2017-09-23T13:36:06.475Z,27.10
2017-09-23T13:38:37.400Z,27.10
2017-09-23T13:41:08.337Z,27.10
2017-09-23T13:43:40.520Z,27.00
2017-09-23T13:46:11.450Z,27.00
2017-09-23T13:48:42.374Z,27.00
2017-09-23T13:51:13.283Z,27.00
2017-09-23T13:53:44.159Z,27.00
2017-09-23T13:56:15.715Z,27.00
2017-09-23T13:58:46.937Z,27.00
2017-09-23T14:01:19.071Z,27.00
2017-09-23T14:03:50.225Z,26.90
2017-09-23T14:06:21.201Z,27.00
2017-09-23T14:08:52.148Z,27.00
2017-09-23T14:11:23.076Z,27.00
2017-09-23T14:13:54.372Z,27.00
2017-09-23T14:16:25.274Z,27.00
2017-09-23T14:18:56.219Z,27.00
2017-09-23T14:21:27.163Z,26.90
2017-09-23T14:23:58.090Z,26.80
2017-09-23T14:26:30.354Z,26.80
2017-09-23T14:29:01.300Z,26.80
2017-09-23T14:31:33.342Z,26.70
2017-09-23T14:34:04.262Z,26.70
2017-09-23T14:36:36.001Z,26.70
2017-09-23T14:39:06.935Z,26.60
2017-09-23T14:41:37.815Z,26.60
2017-09-23T14:44:10.092Z,26.60
2017-09-23T14:46:41.042Z,26.60
2017-09-23T14:49:11.947Z,26.60
2017-09-23T14:51:44.183Z,26.50
2017-09-23T14:54:15.095Z,26.50
2017-09-23T14:56:46.185Z,26.50
2017-09-23T14:59:17.867Z,26.40
2017-09-23T15:01:48.996Z,26.40
2017-09-23T15:04:20.667Z,26.40
2017-09-23T15:06:51.614Z,26.40
2017-09-23T15:09:22.574Z,26.40
2017-09-23T15:11:53.496Z,26.40
2017-09-23T15:14:24.892Z,26.40
2017-09-23T15:16:55.829Z,26.40
2017-09-23T15:19:26.802Z,26.40
2017-09-23T15:21:58.505Z,26.40
2017-09-23T15:24:29.448Z,26.40
2017-09-23T15:27:00.708Z,26.40
2017-09-23T15:29:31.607Z,26.40
2017-09-23T15:32:02.759Z,26.40
2017-09-23T15:34:33.673Z,26.40
2017-09-23T15:37:04.658Z,26.40
2017-09-23T15:39:35.635Z,26.30
2017-09-23T15:42:06.547Z,26.30
2017-09-23T15:44:37.982Z,26.30
2017-09-23T15:47:08.959Z,26.30
2017-09-23T15:49:40.654Z,26.20
2017-09-23T15:52:11.610Z,26.20
2017-09-23T15:54:42.643Z,26.20
2017-09-23T15:57:14.825Z,26.20
2017-09-23T15:59:46.743Z,26.20
2017-09-23T16:02:17.846Z,26.20
2017-09-23T16:04:48.864Z,26.20
2017-09-23T16:07:20.555Z,26.20
2017-09-23T16:09:52.873Z,26.20
2017-09-23T16:12:23.885Z,26.20
2017-09-23T16:14:55.110Z,26.20
2017-09-23T16:17:26.816Z,26.30
2017-09-23T16:19:57.742Z,26.20
2017-09-23T16:22:28.710Z,26.30
2017-09-23T16:24:59.691Z,26.20
2017-09-23T16:27:31.875Z,26.20
2017-09-23T16:30:03.552Z,26.20
2017-09-23T16:32:34.477Z,26.20
2017-09-23T16:35:05.400Z,26.20
2017-09-23T16:37:37.108Z,26.30
2017-09-23T16:40:08.522Z,26.20
2017-09-23T16:42:39.463Z,26.30
2017-09-23T16:45:10.710Z,26.30
2017-09-23T16:47:41.603Z,26.30
2017-09-23T16:50:12.532Z,26.30
2017-09-23T16:52:46.404Z,26.30
2017-09-23T16:55:17.312Z,26.30
2017-09-23T16:57:49.015Z,26.20
2017-09-23T17:00:19.894Z,26.20
2017-09-23T17:02:51.611Z,26.20
2017-09-23T17:05:22.534Z,26.20
2017-09-23T17:07:53.458Z,26.20
2017-09-23T17:10:24.785Z,26.20
2017-09-23T17:12:56.490Z,26.30
2017-09-23T17:15:27.887Z,26.30
2017-09-23T17:17:59.560Z,26.30
2017-09-23T17:20:30.479Z,26.30
2017-09-23T17:23:02.176Z,26.40
2017-09-23T17:25:33.115Z,26.30
2017-09-23T17:28:04.399Z,26.40
2017-09-23T17:30:35.288Z,26.40
2017-09-23T17:33:06.206Z,26.40
2017-09-23T17:35:37.131Z,26.40
2017-09-23T17:38:08.815Z,26.30
2017-09-23T17:40:40.132Z,26.30
2017-09-23T17:43:11.814Z,26.30
2017-09-23T17:45:43.047Z,26.30
2017-09-23T17:48:13.992Z,26.40
2017-09-23T17:50:44.930Z,26.30
2017-09-23T17:53:15.845Z,26.30
2017-09-23T17:55:47.517Z,26.30
2017-09-23T17:58:18.765Z,26.30
2017-09-23T18:00:49.710Z,26.30
2017-09-23T18:03:20.659Z,26.30
2017-09-23T18:05:51.563Z,26.30
2017-09-23T18:08:23.181Z,26.40
2017-09-23T18:10:55.170Z,26.30
2017-09-23T18:13:26.862Z,26.40
2017-09-23T18:15:57.828Z,26.30
2017-09-23T18:18:28.739Z,26.40
2017-09-23T18:20:59.643Z,26.40
2017-09-23T18:23:31.336Z,26.30
2017-09-23T18:26:02.251Z,26.30
2017-09-23T18:28:34.431Z,26.20
2017-09-23T18:31:05.346Z,26.20
2017-09-23T18:33:37.034Z,26.10
2017-09-23T18:36:07.947Z,26.10
2017-09-23T18:38:39.643Z,26.10
2017-09-23T18:41:10.651Z,26.00
2017-09-23T18:43:42.343Z,26.10
2017-09-23T18:46:13.250Z,26.10
2017-09-23T18:48:44.911Z,26.10
2017-09-23T18:51:15.832Z,26.10
2017-09-23T18:53:47.911Z,26.10
2017-09-23T18:56:18.819Z,26.00
2017-09-23T18:58:50.193Z,26.00
2017-09-23T19:01:21.357Z,26.00
2017-09-23T19:03:52.288Z,26.00
2017-09-23T19:06:23.219Z,26.00
2017-09-23T19:08:54.146Z,26.00
2017-09-23T19:11:26.327Z,26.00
2017-09-23T19:13:57.280Z,26.00
2017-09-23T19:16:28.203Z,26.00
2017-09-23T19:18:59.138Z,26.00
2017-09-23T19:21:30.080Z,26.00
2017-09-23T19:24:02.330Z,26.00
2017-09-23T19:26:34.122Z,26.00
2017-09-23T19:29:05.161Z,26.00
2017-09-23T19:31:36.071Z,26.00
2017-09-23T19:34:07.858Z,26.10
2017-09-23T19:36:38.799Z,26.10
2017-09-23T19:39:09.742Z,26.10
2017-09-23T19:41:41.071Z,26.10
2017-09-23T19:44:11.971Z,26.10
2017-09-23T19:46:42.908Z,26.10
2017-09-23T19:49:13.831Z,26.20
2017-09-23T19:51:44.736Z,26.20
2017-09-23T19:54:16.776Z,26.20
2017-09-23T19:56:48.447Z,26.20
2017-09-23T19:59:20.512Z,26.20
2017-09-23T20:01:51.416Z,26.20
2017-09-23T20:04:23.103Z,26.20
2017-09-23T20:06:54.007Z,26.20
2017-09-23T20:09:25.736Z,26.20
2017-09-23T20:11:56.807Z,26.10
2017-09-23T20:14:28.547Z,26.20
2017-09-23T20:16:59.440Z,26.10
2017-09-23T20:19:30.375Z,26.20
2017-09-23T20:22:01.315Z,26.20
2017-09-23T20:24:32.447Z,26.20
2017-09-23T20:27:03.391Z,26.20
2017-09-23T20:29:34.673Z,26.20
2017-09-23T20:32:05.330Z,26.30
2017-09-23T20:34:41.449Z,26.30
2017-09-23T20:37:12.363Z,26.30
2017-09-23T20:39:43.308Z,26.20
2017-09-23T20:42:14.656Z,26.20
2017-09-23T20:44:45.594Z,26.30
2017-09-23T20:47:16.492Z,26.30
2017-09-23T20:49:47.399Z,26.30
2017-09-23T20:52:18.323Z,26.30
2017-09-23T20:54:49.694Z,26.30
2017-09-23T20:57:20.599Z,26.30
2017-09-23T20:59:51.840Z,26.30
2017-09-23T21:02:22.752Z,26.30
2017-09-23T21:04:54.431Z,26.30
2017-09-23T21:07:25.383Z,26.30
2017-09-23T21:09:56.306Z,26.30
2017-09-23T21:12:32.438Z,26.30
2017-09-23T21:15:04.152Z,26.30
2017-09-23T21:17:35.822Z,26.20
2017-09-23T21:20:06.754Z,26.20
2017-09-23T21:22:37.670Z,26.30
2017-09-23T21:25:08.913Z,26.20
2017-09-23T21:27:39.823Z,26.20
2017-09-23T21:30:11.514Z,26.10
2017-09-23T21:32:42.429Z,26.10
2017-09-23T21:35:13.377Z,26.10
2017-09-23T21:37:44.319Z,26.10
2017-09-23T21:40:16.007Z,26.10
2017-09-23T21:42:47.399Z,26.10
2017-09-23T21:45:19.096Z,26.10
2017-09-23T21:47:50.005Z,26.10
2017-09-23T21:50:20.934Z,26.10
2017-09-23T21:52:52.622Z,26.10
2017-09-23T21:55:24.063Z,26.10
2017-09-23T21:57:54.989Z,26.10
2017-09-23T22:00:25.899Z,26.10
2017-09-23T22:02:57.642Z,26.10
2017-09-23T22:05:28.586Z,26.10
2017-09-23T22:07:59.495Z,26.10
2017-09-23T22:10:30.417Z,26.10
2017-09-23T22:13:01.793Z,26.10
2017-09-23T22:15:32.714Z,26.10
2017-09-23T22:18:03.623Z,26.10
2017-09-23T22:20:34.533Z,26.10
2017-09-23T22:23:06.179Z,26.10
2017-09-23T22:25:38.137Z,26.10
2017-09-23T22:28:09.063Z,26.10
2017-09-23T22:30:39.955Z,26.10
2017-09-23T22:33:10.876Z,26.00
2017-09-23T22:35:42.550Z,25.90
2017-09-23T22:38:14.513Z,25.90
2017-09-23T22:40:45.423Z,25.90
2017-09-23T22:43:17.499Z,25.90
2017-09-23T22:45:49.166Z,25.90
2017-09-23T22:48:20.084Z,25.90
2017-09-23T22:50:51.784Z,25.90
2017-09-23T22:53:22.697Z,25.80
2017-09-23T22:55:54.914Z,25.90
2017-09-23T22:58:25.814Z,25.90
2017-09-23T23:00:56.739Z,25.90
2017-09-23T23:03:27.662Z,25.90
2017-09-23T23:05:59.364Z,25.80
2017-09-23T23:08:31.127Z,25.80
2017-09-23T23:11:02.043Z,25.80
2017-09-23T23:13:33.375Z,25.80
2017-09-23T23:16:05.061Z,25.80
2017-09-23T23:18:35.966Z,25.80
2017-09-23T23:21:07.686Z,25.80
2017-09-23T23:23:38.591Z,25.80
2017-09-23T23:26:09.823Z,25.80
2017-09-23T23:28:40.759Z,25.80
2017-09-23T23:31:11.683Z,25.80
2017-09-23T23:33:43.367Z,25.80
2017-09-23T23:36:14.298Z,25.80
2017-09-23T23:38:45.433Z,25.90
2017-09-23T23:41:16.360Z,25.90
2017-09-23T23:43:48.315Z,26.00
2017-09-23T23:46:19.987Z,26.00
2017-09-23T23:48:50.934Z,26.00
2017-09-23T23:51:21.845Z,26.00
2017-09-23T23:53:53.555Z,26.10
2017-09-23T23:56:25.682Z,26.20
2017-09-23T23:58:56.622Z,26.20
